sensor_id;sensor_type;location;lat;lon;timestamp;P1;durP1;ratioP1;P2;durP2;ratioP2
2972;SDS011;1496;51.404;7.232;2023-01-15T00:03:50;3.07;;;0.90;;
2972;SDS011;1496;51.404;7.232;2023-01-15T00:06:18;8.07;;;2.00;;
2972;SDS011;1496;51.404;7.232;2023-01-15T00:08:46;3.13;;;0.93;;
2972;SDS011;1496;51.404;7.232;2023-01-15T00:11:12;5.87;;;1.10;;
2972;SDS011;1496;51.404;7.232;2023-01-15T00:13:39;4.50;;;1.20;;
2972;SDS011;1496;51.404;7.232;2023-01-15T00:16:08;1.80;;;0.90;;
2972;SDS011;1496;51.404;7.232;2023-01-15T00:18:40;7.33;;;1.30;;
2972;SDS011;1496;51.404;7.232;2023-01-15T00:21:08;6.57;;;1.30;;
2972;SDS011;1496;51.404;7.232;2023-01-15T00:23:38;4.33;;;1.33;;
2972;SDS011;1496;51.404;7.232;2023-01-15T00:26:26;4.70;;;1.17;;
2972;SDS011;1496;51.404;7.232;2023-01-15T00:29:14;6.40;;;1.40;;
2972;SDS011;1496;51.404;7.232;2023-01-15T00:31:42;5.50;;;1.03;;
2972;SDS011;1496;51.404;7.232;2023-01-15T00:34:16;2.50;;;1.23;;
2972;SDS011;1496;51.404;7.232;2023-01-15T00:36:43;5.03;;;1.30;;
2972;SDS011;1496;51.404;7.232;2023-01-15T00:39:10;6.70;;;1.80;;
2972;SDS011;1496;51.404;7.232;2023-01-15T00:41:38;4.80;;;1.00;;
2972;SDS011;1496;51.404;7.232;2023-01-15T00:44:06;7.40;;;1.40;;
2972;SDS011;1496;51.404;7.232;2023-01-15T00:46:33;4.20;;;1.53;;
2972;SDS011;1496;51.404;7.232;2023-01-15T00:49:02;5.53;;;1.60;;
2972;SDS011;1496;51.404;7.232;2023-01-15T00:51:29;4.47;;;2.23;;
2972;SDS011;1496;51.404;7.232;2023-01-15T00:53:59;4.87;;;2.57;;
2972;SDS011;1496;51.404;7.232;2023-01-15T00:56:27;5.33;;;1.83;;
2972;SDS011;1496;51.404;7.232;2023-01-15T00:58:54;6.20;;;2.37;;
2972;SDS011;1496;51.404;7.232;2023-01-15T01:01:21;5.80;;;2.10;;
2972;SDS011;1496;51.404;7.232;2023-01-15T01:03:47;4.70;;;2.47;;
2972;SDS011;1496;51.404;7.232;2023-01-15T01:06:18;4.00;;;1.70;;
2972;SDS011;1496;51.404;7.232;2023-01-15T01:08:47;2.90;;;1.37;;
2972;SDS011;1496;51.404;7.232;2023-01-15T01:11:14;5.17;;;1.73;;
2972;SDS011;1496;51.404;7.232;2023-01-15T01:13:42;2.60;;;1.43;;
2972;SDS011;1496;51.404;7.232;2023-01-15T01:16:30;4.50;;;1.13;;
2972;SDS011;1496;51.404;7.232;2023-01-15T01:19:03;6.50;;;1.63;;
2972;SDS011;1496;51.404;7.232;2023-01-15T01:21:33;1.93;;;0.87;;
2972;SDS011;1496;51.404;7.232;2023-01-15T01:24:01;4.03;;;1.47;;
2972;SDS011;1496;51.404;7.232;2023-01-15T01:26:30;1.83;;;1.03;;
2972;SDS011;1496;51.404;7.232;2023-01-15T01:28:58;3.23;;;1.00;;
2972;SDS011;1496;51.404;7.232;2023-01-15T01:31:24;1.50;;;0.90;;
2972;SDS011;1496;51.404;7.232;2023-01-15T01:33:52;1.30;;;0.70;;
2972;SDS011;1496;51.404;7.232;2023-01-15T01:36:25;3.33;;;0.87;;
2972;SDS011;1496;51.404;7.232;2023-01-15T01:38:57;2.43;;;0.80;;
2972;SDS011;1496;51.404;7.232;2023-01-15T01:41:24;1.67;;;0.60;;
2972;SDS011;1496;51.404;7.232;2023-01-15T01:44:03;8.70;;;1.10;;
2972;SDS011;1496;51.404;7.232;2023-01-15T01:46:36;1.87;;;1.00;;
2972;SDS011;1496;51.404;7.232;2023-01-15T01:49:07;2.53;;;0.97;;
2972;SDS011;1496;51.404;7.232;2023-01-15T01:51:42;4.93;;;1.10;;
2972;SDS011;1496;51.404;7.232;2023-01-15T01:54:15;2.13;;;0.83;;
2972;SDS011;1496;51.404;7.232;2023-01-15T01:56:47;1.30;;;0.70;;
2972;SDS011;1496;51.404;7.232;2023-01-15T01:59:15;1.97;;;0.80;;
2972;SDS011;1496;51.404;7.232;2023-01-15T02:01:45;1.40;;;0.60;;
2972;SDS011;1496;51.404;7.232;2023-01-15T02:04:13;1.80;;;0.80;;
2972;SDS011;1496;51.404;7.232;2023-01-15T02:06:43;1.83;;;0.80;;
2972;SDS011;1496;51.404;7.232;2023-01-15T02:09:10;1.20;;;0.80;;
2972;SDS011;1496;51.404;7.232;2023-01-15T02:11:36;4.27;;;0.90;;
2972;SDS011;1496;51.404;7.232;2023-01-15T02:18:15;3.93;;;1.00;;
2972;SDS011;1496;51.404;7.232;2023-01-15T02:20:38;3.43;;;0.90;;
2972;SDS011;1496;51.404;7.232;2023-01-15T02:26:00;3.27;;;0.60;;
2972;SDS011;1496;51.404;7.232;2023-01-15T02:28:32;2.90;;;0.60;;
2972;SDS011;1496;51.404;7.232;2023-01-15T02:31:13;3.23;;;1.30;;
2972;SDS011;1496;51.404;7.232;2023-01-15T02:33:57;4.97;;;1.83;;
2972;SDS011;1496;51.404;7.232;2023-01-15T02:36:32;3.17;;;0.80;;
2972;SDS011;1496;51.404;7.232;2023-01-15T02:39:03;2.60;;;0.90;;
2972;SDS011;1496;51.404;7.232;2023-01-15T02:41:37;2.50;;;0.93;;
2972;SDS011;1496;51.404;7.232;2023-01-15T02:44:14;1.93;;;0.80;;
2972;SDS011;1496;51.404;7.232;2023-01-15T02:46:44;2.80;;;1.00;;
2972;SDS011;1496;51.404;7.232;2023-01-15T02:49:14;6.00;;;0.80;;
2972;SDS011;1496;51.404;7.232;2023-01-15T02:51:53;1.20;;;0.80;;
2972;SDS011;1496;51.404;7.232;2023-01-15T02:54:34;3.37;;;0.83;;
2972;SDS011;1496;51.404;7.232;2023-01-15T02:57:25;1.57;;;0.77;;
2972;SDS011;1496;51.404;7.232;2023-01-15T02:59:56;6.93;;;0.90;;
2972;SDS011;1496;51.404;7.232;2023-01-15T03:02:28;1.90;;;1.43;;
2972;SDS011;1496;51.404;7.232;2023-01-15T03:07:43;4.77;;;0.80;;
2972;SDS011;1496;51.404;7.232;2023-01-15T03:10:15;1.70;;;0.80;;
2972;SDS011;1496;51.404;7.232;2023-01-15T03:15:55;5.67;;;1.20;;
2972;SDS011;1496;51.404;7.232;2023-01-15T03:18:55;3.20;;;0.90;;
2972;SDS011;1496;51.404;7.232;2023-01-15T03:21:54;5.80;;;1.37;;
2972;SDS011;1496;51.404;7.232;2023-01-15T03:24:26;5.50;;;0.87;;
2972;SDS011;1496;51.404;7.232;2023-01-15T03:26:59;0.90;;;0.60;;
2972;SDS011;1496;51.404;7.232;2023-01-15T03:29:29;5.73;;;0.93;;
2972;SDS011;1496;51.404;7.232;2023-01-15T03:32:00;1.43;;;0.80;;
2972;SDS011;1496;51.404;7.232;2023-01-15T03:34:30;1.70;;;0.60;;
2972;SDS011;1496;51.404;7.232;2023-01-15T03:37:04;2.77;;;1.00;;
2972;SDS011;1496;51.404;7.232;2023-01-15T03:39:33;2.30;;;0.80;;
2972;SDS011;1496;51.404;7.232;2023-01-15T03:45:09;2.70;;;0.70;;
2972;SDS011;1496;51.404;7.232;2023-01-15T03:50:47;1.50;;;0.73;;
2972;SDS011;1496;51.404;7.232;2023-01-15T03:53:19;4.13;;;0.90;;
2972;SDS011;1496;51.404;7.232;2023-01-15T03:55:58;3.33;;;0.97;;
2972;SDS011;1496;51.404;7.232;2023-01-15T03:58:44;2.03;;;0.87;;
2972;SDS011;1496;51.404;7.232;2023-01-15T04:01:48;2.77;;;0.90;;
2972;SDS011;1496;51.404;7.232;2023-01-15T04:04:21;2.97;;;0.90;;
2972;SDS011;1496;51.404;7.232;2023-01-15T04:06:52;2.20;;;0.90;;
2972;SDS011;1496;51.404;7.232;2023-01-15T04:09:21;4.00;;;1.07;;
2972;SDS011;1496;51.404;7.232;2023-01-15T04:11:56;2.93;;;0.73;;
2972;SDS011;1496;51.404;7.232;2023-01-15T04:14:28;1.40;;;0.77;;
2972;SDS011;1496;51.404;7.232;2023-01-15T04:16:57;1.50;;;0.70;;
2972;SDS011;1496;51.404;7.232;2023-01-15T04:19:24;4.00;;;0.97;;
2972;SDS011;1496;51.404;7.232;2023-01-15T04:21:59;5.33;;;1.10;;
2972;SDS011;1496;51.404;7.232;2023-01-15T04:24:26;6.70;;;1.10;;
2972;SDS011;1496;51.404;7.232;2023-01-15T04:26:52;1.67;;;0.80;;
2972;SDS011;1496;51.404;7.232;2023-01-15T04:29:20;3.57;;;0.73;;
2972;SDS011;1496;51.404;7.232;2023-01-15T04:31:47;2.20;;;1.00;;
2972;SDS011;1496;51.404;7.232;2023-01-15T04:34:18;3.63;;;0.97;;
2972;SDS011;1496;51.404;7.232;2023-01-15T04:36:44;4.97;;;1.07;;
2972;SDS011;1496;51.404;7.232;2023-01-15T04:39:12;10.60;;;1.00;;
2972;SDS011;1496;51.404;7.232;2023-01-15T04:41:39;2.07;;;0.90;;
2972;SDS011;1496;51.404;7.232;2023-01-15T04:44:24;3.10;;;1.07;;
2972;SDS011;1496;51.404;7.232;2023-01-15T04:46:54;5.40;;;1.07;;
2972;SDS011;1496;51.404;7.232;2023-01-15T04:49:23;5.63;;;1.03;;
2972;SDS011;1496;51.404;7.232;2023-01-15T04:51:49;3.60;;;1.30;;
2972;SDS011;1496;51.404;7.232;2023-01-15T04:54:17;2.47;;;1.00;;
2972;SDS011;1496;51.404;7.232;2023-01-15T04:56:48;6.30;;;1.10;;
2972;SDS011;1496;51.404;7.232;2023-01-15T04:59:23;7.00;;;1.30;;
2972;SDS011;1496;51.404;7.232;2023-01-15T05:01:51;4.77;;;2.10;;
2972;SDS011;1496;51.404;7.232;2023-01-15T05:04:20;3.97;;;1.40;;
2972;SDS011;1496;51.404;7.232;2023-01-15T05:06:48;4.80;;;1.10;;
2972;SDS011;1496;51.404;7.232;2023-01-15T05:09:15;3.10;;;1.20;;
2972;SDS011;1496;51.404;7.232;2023-01-15T05:11:42;4.70;;;1.37;;
2972;SDS011;1496;51.404;7.232;2023-01-15T05:14:08;5.30;;;0.93;;
2972;SDS011;1496;51.404;7.232;2023-01-15T05:16:39;3.43;;;0.93;;
2972;SDS011;1496;51.404;7.232;2023-01-15T05:19:06;7.43;;;2.87;;
2972;SDS011;1496;51.404;7.232;2023-01-15T05:21:35;1.40;;;0.80;;
2972;SDS011;1496;51.404;7.232;2023-01-15T05:24:04;11.20;;;1.23;;
2972;SDS011;1496;51.404;7.232;2023-01-15T05:26:34;3.73;;;1.27;;
2972;SDS011;1496;51.404;7.232;2023-01-15T05:29:01;7.00;;;1.10;;
2972;SDS011;1496;51.404;7.232;2023-01-15T05:31:29;5.13;;;1.00;;
2972;SDS011;1496;51.404;7.232;2023-01-15T05:33:58;5.10;;;1.00;;
2972;SDS011;1496;51.404;7.232;2023-01-15T05:36:27;2.90;;;0.90;;
2972;SDS011;1496;51.404;7.232;2023-01-15T05:38:56;2.20;;;0.70;;
2972;SDS011;1496;51.404;7.232;2023-01-15T05:41:26;2.77;;;1.30;;
2972;SDS011;1496;51.404;7.232;2023-01-15T05:44:12;5.50;;;1.10;;
2972;SDS011;1496;51.404;7.232;2023-01-15T05:46:41;3.53;;;1.10;;
2972;SDS011;1496;51.404;7.232;2023-01-15T05:49:11;4.73;;;0.97;;
2972;SDS011;1496;51.404;7.232;2023-01-15T05:51:41;13.80;;;1.37;;
2972;SDS011;1496;51.404;7.232;2023-01-15T05:54:11;2.13;;;0.90;;
2972;SDS011;1496;51.404;7.232;2023-01-15T05:56:39;9.43;;;1.83;;
2972;SDS011;1496;51.404;7.232;2023-01-15T05:59:07;13.40;;;1.73;;
2972;SDS011;1496;51.404;7.232;2023-01-15T06:01:37;7.43;;;1.47;;
2972;SDS011;1496;51.404;7.232;2023-01-15T06:04:05;7.70;;;1.63;;
2972;SDS011;1496;51.404;7.232;2023-01-15T06:06:32;7.87;;;1.60;;
2972;SDS011;1496;51.404;7.232;2023-01-15T06:09:00;8.13;;;1.10;;
2972;SDS011;1496;51.404;7.232;2023-01-15T06:11:30;4.13;;;1.20;;
2972;SDS011;1496;51.404;7.232;2023-01-15T06:13:57;5.00;;;1.50;;
2972;SDS011;1496;51.404;7.232;2023-01-15T06:16:25;5.53;;;1.10;;
2972;SDS011;1496;51.404;7.232;2023-01-15T06:18:51;8.70;;;1.70;;
2972;SDS011;1496;51.404;7.232;2023-01-15T06:21:19;4.80;;;1.33;;
2972;SDS011;1496;51.404;7.232;2023-01-15T06:23:45;11.60;;;1.63;;
2972;SDS011;1496;51.404;7.232;2023-01-15T06:26:13;2.90;;;1.03;;
2972;SDS011;1496;51.404;7.232;2023-01-15T06:28:41;5.63;;;1.00;;
2972;SDS011;1496;51.404;7.232;2023-01-15T06:31:10;7.40;;;1.83;;
2972;SDS011;1496;51.404;7.232;2023-01-15T06:33:39;6.40;;;1.20;;
2972;SDS011;1496;51.404;7.232;2023-01-15T06:36:10;7.83;;;1.50;;
2972;SDS011;1496;51.404;7.232;2023-01-15T06:38:38;5.13;;;1.30;;
2972;SDS011;1496;51.404;7.232;2023-01-15T06:41:08;10.23;;;1.60;;
2972;SDS011;1496;51.404;7.232;2023-01-15T06:43:56;9.03;;;1.10;;
2972;SDS011;1496;51.404;7.232;2023-01-15T06:46:45;9.30;;;1.70;;
2972;SDS011;1496;51.404;7.232;2023-01-15T06:49:32;2.50;;;1.07;;
2972;SDS011;1496;51.404;7.232;2023-01-15T06:51:59;4.10;;;1.40;;
2972;SDS011;1496;51.404;7.232;2023-01-15T06:54:26;6.27;;;1.53;;
2972;SDS011;1496;51.404;7.232;2023-01-15T06:56:53;5.43;;;1.90;;
2972;SDS011;1496;51.404;7.232;2023-01-15T06:59:20;5.83;;;1.63;;
2972;SDS011;1496;51.404;7.232;2023-01-15T07:01:46;5.63;;;2.10;;
2972;SDS011;1496;51.404;7.232;2023-01-15T07:04:13;4.23;;;1.50;;
2972;SDS011;1496;51.404;7.232;2023-01-15T07:06:41;6.13;;;1.40;;
2972;SDS011;1496;51.404;7.232;2023-01-15T07:09:08;4.10;;;1.47;;
2972;SDS011;1496;51.404;7.232;2023-01-15T07:11:37;4.73;;;1.67;;
2972;SDS011;1496;51.404;7.232;2023-01-15T07:14:16;6.73;;;1.37;;
2972;SDS011;1496;51.404;7.232;2023-01-15T07:16:52;3.73;;;1.40;;
2972;SDS011;1496;51.404;7.232;2023-01-15T07:19:19;2.90;;;1.30;;
2972;SDS011;1496;51.404;7.232;2023-01-15T07:21:46;7.30;;;1.57;;
2972;SDS011;1496;51.404;7.232;2023-01-15T07:24:13;3.30;;;1.33;;
2972;SDS011;1496;51.404;7.232;2023-01-15T07:26:42;4.93;;;1.60;;
2972;SDS011;1496;51.404;7.232;2023-01-15T07:29:10;4.13;;;1.50;;
2972;SDS011;1496;51.404;7.232;2023-01-15T07:31:37;4.70;;;1.13;;
2972;SDS011;1496;51.404;7.232;2023-01-15T07:34:04;6.50;;;1.30;;
2972;SDS011;1496;51.404;7.232;2023-01-15T07:36:31;11.13;;;1.67;;
2972;SDS011;1496;51.404;7.232;2023-01-15T07:38:58;2.50;;;1.00;;
2972;SDS011;1496;51.404;7.232;2023-01-15T07:41:24;8.67;;;1.50;;
2972;SDS011;1496;51.404;7.232;2023-01-15T07:44:10;5.57;;;1.23;;
2972;SDS011;1496;51.404;7.232;2023-01-15T07:46:56;7.83;;;1.60;;
2972;SDS011;1496;51.404;7.232;2023-01-15T07:49:41;5.33;;;1.50;;
2972;SDS011;1496;51.404;7.232;2023-01-15T07:52:13;5.53;;;1.60;;
2972;SDS011;1496;51.404;7.232;2023-01-15T07:54:42;9.67;;;1.30;;
2972;SDS011;1496;51.404;7.232;2023-01-15T07:57:10;7.90;;;1.60;;
2972;SDS011;1496;51.404;7.232;2023-01-15T07:59:39;1.93;;;1.00;;
2972;SDS011;1496;51.404;7.232;2023-01-15T08:02:05;4.50;;;1.60;;
2972;SDS011;1496;51.404;7.232;2023-01-15T08:04:32;7.03;;;1.40;;
2972;SDS011;1496;51.404;7.232;2023-01-15T08:07:00;3.67;;;0.90;;
2972;SDS011;1496;51.404;7.232;2023-01-15T08:09:27;6.50;;;1.70;;
2972;SDS011;1496;51.404;7.232;2023-01-15T08:11:56;6.87;;;1.20;;
2972;SDS011;1496;51.404;7.232;2023-01-15T08:14:42;13.30;;;1.67;;
2972;SDS011;1496;51.404;7.232;2023-01-15T08:17:33;6.03;;;1.40;;
2972;SDS011;1496;51.404;7.232;2023-01-15T08:20:06;4.50;;;1.47;;
2972;SDS011;1496;51.404;7.232;2023-01-15T08:22:36;3.37;;;1.23;;
2972;SDS011;1496;51.404;7.232;2023-01-15T08:25:03;2.40;;;0.87;;
2972;SDS011;1496;51.404;7.232;2023-01-15T08:27:31;11.33;;;1.57;;
2972;SDS011;1496;51.404;7.232;2023-01-15T08:29:57;3.73;;;1.33;;
2972;SDS011;1496;51.404;7.232;2023-01-15T08:32:23;6.03;;;1.20;;
2972;SDS011;1496;51.404;7.232;2023-01-15T08:34:50;6.90;;;1.47;;
2972;SDS011;1496;51.404;7.232;2023-01-15T08:37:17;4.57;;;1.43;;
2972;SDS011;1496;51.404;7.232;2023-01-15T08:39:43;8.53;;;1.67;;
2972;SDS011;1496;51.404;7.232;2023-01-15T08:42:10;4.90;;;1.20;;
2972;SDS011;1496;51.404;7.232;2023-01-15T08:44:38;2.67;;;1.70;;
2972;SDS011;1496;51.404;7.232;2023-01-15T08:47:05;5.80;;;2.07;;
2972;SDS011;1496;51.404;7.232;2023-01-15T08:49:32;8.37;;;1.13;;
2972;SDS011;1496;51.404;7.232;2023-01-15T08:51:59;9.30;;;1.40;;
2972;SDS011;1496;51.404;7.232;2023-01-15T08:54:26;7.63;;;1.27;;
2972;SDS011;1496;51.404;7.232;2023-01-15T08:56:57;3.93;;;1.40;;
2972;SDS011;1496;51.404;7.232;2023-01-15T08:59:26;5.47;;;1.37;;
2972;SDS011;1496;51.404;7.232;2023-01-15T09:01:53;7.63;;;1.80;;
2972;SDS011;1496;51.404;7.232;2023-01-15T09:04:20;6.20;;;1.23;;
2972;SDS011;1496;51.404;7.232;2023-01-15T09:06:48;1.87;;;0.90;;
2972;SDS011;1496;51.404;7.232;2023-01-15T09:09:14;4.20;;;1.30;;
2972;SDS011;1496;51.404;7.232;2023-01-15T09:11:44;5.43;;;1.00;;
2972;SDS011;1496;51.404;7.232;2023-01-15T09:14:12;6.50;;;0.90;;
2972;SDS011;1496;51.404;7.232;2023-01-15T09:16:42;4.50;;;1.97;;
2972;SDS011;1496;51.404;7.232;2023-01-15T09:19:09;4.30;;;1.00;;
2972;SDS011;1496;51.404;7.232;2023-01-15T09:21:36;4.80;;;1.00;;
2972;SDS011;1496;51.404;7.232;2023-01-15T09:24:03;3.77;;;0.70;;
2972;SDS011;1496;51.404;7.232;2023-01-15T09:26:35;5.93;;;1.50;;
2972;SDS011;1496;51.404;7.232;2023-01-15T09:29:05;3.23;;;0.60;;
2972;SDS011;1496;51.404;7.232;2023-01-15T09:31:33;3.03;;;1.20;;
2972;SDS011;1496;51.404;7.232;2023-01-15T09:33:59;2.97;;;0.73;;
2972;SDS011;1496;51.404;7.232;2023-01-15T09:36:27;3.20;;;0.90;;
2972;SDS011;1496;51.404;7.232;2023-01-15T09:38:57;3.70;;;1.47;;
2972;SDS011;1496;51.404;7.232;2023-01-15T09:41:24;2.70;;;0.70;;
2972;SDS011;1496;51.404;7.232;2023-01-15T09:44:25;1.83;;;1.30;;
2972;SDS011;1496;51.404;7.232;2023-01-15T09:47:12;3.50;;;1.97;;
2972;SDS011;1496;51.404;7.232;2023-01-15T09:55:47;3.17;;;0.80;;
2972;SDS011;1496;51.404;7.232;2023-01-15T09:58:20;1.90;;;0.80;;
2972;SDS011;1496;51.404;7.232;2023-01-15T10:00:53;3.50;;;1.20;;
2972;SDS011;1496;51.404;7.232;2023-01-15T10:03:30;9.33;;;4.13;;
2972;SDS011;1496;51.404;7.232;2023-01-15T10:06:07;4.40;;;1.13;;
2972;SDS011;1496;51.404;7.232;2023-01-15T10:13:48;3.37;;;1.30;;
2972;SDS011;1496;51.404;7.232;2023-01-15T10:16:23;3.70;;;1.27;;
2972;SDS011;1496;51.404;7.232;2023-01-15T10:18:52;3.60;;;1.23;;
2972;SDS011;1496;51.404;7.232;2023-01-15T10:24:11;3.60;;;1.00;;
2972;SDS011;1496;51.404;7.232;2023-01-15T10:29:24;7.30;;;1.43;;
2972;SDS011;1496;51.404;7.232;2023-01-15T10:35:26;10.20;;;1.77;;
2972;SDS011;1496;51.404;7.232;2023-01-15T10:43:33;12.23;;;1.70;;
2972;SDS011;1496;51.404;7.232;2023-01-15T10:46:10;15.90;;;1.40;;
2972;SDS011;1496;51.404;7.232;2023-01-15T10:51:14;6.33;;;1.80;;
2972;SDS011;1496;51.404;7.232;2023-01-15T10:53:53;7.47;;;2.03;;
2972;SDS011;1496;51.404;7.232;2023-01-15T10:56:30;14.00;;;1.73;;
2972;SDS011;1496;51.404;7.232;2023-01-15T10:59:14;7.37;;;1.40;;
2972;SDS011;1496;51.404;7.232;2023-01-15T11:01:48;12.70;;;1.10;;
2972;SDS011;1496;51.404;7.232;2023-01-15T11:04:17;18.17;;;3.20;;
2972;SDS011;1496;51.404;7.232;2023-01-15T11:06:43;14.97;;;1.43;;
2972;SDS011;1496;51.404;7.232;2023-01-15T11:09:18;10.30;;;1.53;;
2972;SDS011;1496;51.404;7.232;2023-01-15T11:11:52;7.83;;;1.57;;
2972;SDS011;1496;51.404;7.232;2023-01-15T11:17:27;14.13;;;1.47;;
2972;SDS011;1496;51.404;7.232;2023-01-15T11:20:47;15.20;;;1.17;;
2972;SDS011;1496;51.404;7.232;2023-01-15T11:23:17;15.20;;;1.40;;
2972;SDS011;1496;51.404;7.232;2023-01-15T11:25:55;15.03;;;1.37;;
2972;SDS011;1496;51.404;7.232;2023-01-15T11:28:33;18.00;;;1.70;;
2972;SDS011;1496;51.404;7.232;2023-01-15T11:31:09;16.10;;;1.50;;
2972;SDS011;1496;51.404;7.232;2023-01-15T11:33:36;17.47;;;1.60;;
2972;SDS011;1496;51.404;7.232;2023-01-15T11:36:05;18.13;;;1.50;;
2972;SDS011;1496;51.404;7.232;2023-01-15T11:38:45;24.83;;;2.30;;
2972;SDS011;1496;51.404;7.232;2023-01-15T11:44:09;22.40;;;1.90;;
2972;SDS011;1496;51.404;7.232;2023-01-15T11:46:56;25.63;;;1.50;;
2972;SDS011;1496;51.404;7.232;2023-01-15T11:49:51;25.80;;;1.33;;
2972;SDS011;1496;51.404;7.232;2023-01-15T11:52:40;21.93;;;1.33;;
2972;SDS011;1496;51.404;7.232;2023-01-15T11:55:23;22.50;;;1.30;;
2972;SDS011;1496;51.404;7.232;2023-01-15T11:57:52;21.37;;;1.50;;
2972;SDS011;1496;51.404;7.232;2023-01-15T12:02:52;21.33;;;1.63;;
2972;SDS011;1496;51.404;7.232;2023-01-15T12:05:27;21.53;;;1.17;;
2972;SDS011;1496;51.404;7.232;2023-01-15T12:07:56;29.57;;;1.70;;
2972;SDS011;1496;51.404;7.232;2023-01-15T12:10:38;23.57;;;1.47;;
2972;SDS011;1496;51.404;7.232;2023-01-15T12:24:24;24.23;;;1.30;;
2972;SDS011;1496;51.404;7.232;2023-01-15T12:32:57;22.70;;;2.13;;
2972;SDS011;1496;51.404;7.232;2023-01-15T12:35:31;22.27;;;0.90;;
2972;SDS011;1496;51.404;7.232;2023-01-15T12:40:58;24.30;;;1.23;;
2972;SDS011;1496;51.404;7.232;2023-01-15T12:43:30;23.00;;;1.00;;
2972;SDS011;1496;51.404;7.232;2023-01-15T12:46:16;25.73;;;1.90;;
2972;SDS011;1496;51.404;7.232;2023-01-15T12:48:51;29.00;;;1.63;;
2972;SDS011;1496;51.404;7.232;2023-01-15T12:51:34;27.13;;;1.73;;
2972;SDS011;1496;51.404;7.232;2023-01-15T12:54:12;27.80;;;1.33;;
2972;SDS011;1496;51.404;7.232;2023-01-15T13:02:10;27.63;;;2.23;;
2972;SDS011;1496;51.404;7.232;2023-01-15T13:04:52;26.90;;;1.60;;
2972;SDS011;1496;51.404;7.232;2023-01-15T13:07:49;27.10;;;1.50;;
2972;SDS011;1496;51.404;7.232;2023-01-15T13:10:25;27.77;;;1.53;;
2972;SDS011;1496;51.404;7.232;2023-01-15T13:12:53;28.80;;;1.50;;
2972;SDS011;1496;51.404;7.232;2023-01-15T13:15:26;27.97;;;1.70;;
2972;SDS011;1496;51.404;7.232;2023-01-15T13:20:55;25.30;;;1.20;;
2972;SDS011;1496;51.404;7.232;2023-01-15T13:23:43;25.77;;;1.70;;
2972;SDS011;1496;51.404;7.232;2023-01-15T13:35:04;25.63;;;1.47;;
2972;SDS011;1496;51.404;7.232;2023-01-15T13:37:43;30.07;;;1.67;;
2972;SDS011;1496;51.404;7.232;2023-01-15T13:40:31;24.97;;;1.27;;
2972;SDS011;1496;51.404;7.232;2023-01-15T13:43:09;25.97;;;1.67;;
2972;SDS011;1496;51.404;7.232;2023-01-15T13:45:52;26.97;;;1.57;;
2972;SDS011;1496;51.404;7.232;2023-01-15T13:48:25;28.53;;;1.70;;
2972;SDS011;1496;51.404;7.232;2023-01-15T13:51:03;32.60;;;2.43;;
2972;SDS011;1496;51.404;7.232;2023-01-15T13:56:10;29.77;;;1.20;;
2972;SDS011;1496;51.404;7.232;2023-01-15T13:58:53;30.10;;;1.40;;
2972;SDS011;1496;51.404;7.232;2023-01-15T14:06:47;25.77;;;1.50;;
2972;SDS011;1496;51.404;7.232;2023-01-15T14:09:26;27.70;;;1.57;;
2972;SDS011;1496;51.404;7.232;2023-01-15T14:20:54;25.57;;;1.73;;
2972;SDS011;1496;51.404;7.232;2023-01-15T14:26:42;27.10;;;1.20;;
2972;SDS011;1496;51.404;7.232;2023-01-15T14:31:56;27.43;;;1.30;;
2972;SDS011;1496;51.404;7.232;2023-01-15T14:34:42;25.47;;;1.03;;
2972;SDS011;1496;51.404;7.232;2023-01-15T14:37:22;30.93;;;1.87;;
2972;SDS011;1496;51.404;7.232;2023-01-15T14:39:55;25.83;;;1.60;;
2972;SDS011;1496;51.404;7.232;2023-01-15T14:45:16;27.90;;;1.67;;
2972;SDS011;1496;51.404;7.232;2023-01-15T14:47:54;26.47;;;1.60;;
2972;SDS011;1496;51.404;7.232;2023-01-15T14:52:52;26.93;;;2.00;;
2972;SDS011;1496;51.404;7.232;2023-01-15T14:55:25;25.47;;;1.07;;
2972;SDS011;1496;51.404;7.232;2023-01-15T14:57:57;29.10;;;1.67;;
2972;SDS011;1496;51.404;7.232;2023-01-15T15:00:48;25.97;;;1.20;;
2972;SDS011;1496;51.404;7.232;2023-01-15T15:03:18;25.63;;;1.43;;
2972;SDS011;1496;51.404;7.232;2023-01-15T15:05:48;26.03;;;1.40;;
2972;SDS011;1496;51.404;7.232;2023-01-15T15:08:16;31.57;;;2.30;;
2972;SDS011;1496;51.404;7.232;2023-01-15T15:10:45;24.73;;;1.10;;
2972;SDS011;1496;51.404;7.232;2023-01-15T15:13:25;24.57;;;1.30;;
2972;SDS011;1496;51.404;7.232;2023-01-15T15:16:03;26.73;;;1.40;;
2972;SDS011;1496;51.404;7.232;2023-01-15T15:18:38;26.23;;;1.30;;
2972;SDS011;1496;51.404;7.232;2023-01-15T15:21:17;31.27;;;1.20;;
2972;SDS011;1496;51.404;7.232;2023-01-15T15:23:57;26.80;;;1.23;;
2972;SDS011;1496;51.404;7.232;2023-01-15T15:26:28;29.43;;;1.30;;
2972;SDS011;1496;51.404;7.232;2023-01-15T15:28:58;25.93;;;1.30;;
2972;SDS011;1496;51.404;7.232;2023-01-15T15:31:33;26.10;;;1.40;;
2972;SDS011;1496;51.404;7.232;2023-01-15T15:34:03;26.63;;;1.40;;
2972;SDS011;1496;51.404;7.232;2023-01-15T15:36:39;25.60;;;1.87;;
2972;SDS011;1496;51.404;7.232;2023-01-15T15:39:16;25.80;;;1.40;;
2972;SDS011;1496;51.404;7.232;2023-01-15T15:41:47;29.10;;;1.50;;
2972;SDS011;1496;51.404;7.232;2023-01-15T15:44:37;26.17;;;1.30;;
2972;SDS011;1496;51.404;7.232;2023-01-15T15:47:37;26.30;;;1.10;;
2972;SDS011;1496;51.404;7.232;2023-01-15T15:50:31;26.27;;;1.60;;
2972;SDS011;1496;51.404;7.232;2023-01-15T15:53:00;26.10;;;1.67;;
2972;SDS011;1496;51.404;7.232;2023-01-15T15:55:35;23.50;;;1.40;;
2972;SDS011;1496;51.404;7.232;2023-01-15T15:58:05;17.53;;;1.20;;
2972;SDS011;1496;51.404;7.232;2023-01-15T16:00:36;2.80;;;1.00;;
2972;SDS011;1496;51.404;7.232;2023-01-15T16:03:21;3.37;;;0.93;;
2972;SDS011;1496;51.404;7.232;2023-01-15T16:08:30;1.80;;;0.90;;
2972;SDS011;1496;51.404;7.232;2023-01-15T16:11:00;3.70;;;1.00;;
2972;SDS011;1496;51.404;7.232;2023-01-15T16:13:37;6.77;;;1.00;;
2972;SDS011;1496;51.404;7.232;2023-01-15T16:16:08;4.90;;;1.47;;
2972;SDS011;1496;51.404;7.232;2023-01-15T16:18:47;3.93;;;0.80;;
2972;SDS011;1496;51.404;7.232;2023-01-15T16:21:36;2.00;;;1.00;;
2972;SDS011;1496;51.404;7.232;2023-01-15T16:24:20;2.40;;;1.07;;
2972;SDS011;1496;51.404;7.232;2023-01-15T16:26:53;6.40;;;1.30;;
2972;SDS011;1496;51.404;7.232;2023-01-15T16:29:27;3.07;;;1.10;;
2972;SDS011;1496;51.404;7.232;2023-01-15T16:31:57;3.70;;;1.07;;
2972;SDS011;1496;51.404;7.232;2023-01-15T16:34:26;2.90;;;1.40;;
2972;SDS011;1496;51.404;7.232;2023-01-15T16:36:58;2.23;;;1.00;;
2972;SDS011;1496;51.404;7.232;2023-01-15T16:39:33;5.90;;;0.90;;
2972;SDS011;1496;51.404;7.232;2023-01-15T16:42:14;3.77;;;0.87;;
2972;SDS011;1496;51.404;7.232;2023-01-15T16:44:58;2.23;;;1.17;;
2972;SDS011;1496;51.404;7.232;2023-01-15T16:47:33;4.20;;;0.93;;
2972;SDS011;1496;51.404;7.232;2023-01-15T16:52:54;1.73;;;0.97;;
2972;SDS011;1496;51.404;7.232;2023-01-15T17:00:45;1.90;;;1.07;;
2972;SDS011;1496;51.404;7.232;2023-01-15T17:05:46;4.00;;;1.07;;
2972;SDS011;1496;51.404;7.232;2023-01-15T17:08:19;1.83;;;1.27;;
2972;SDS011;1496;51.404;7.232;2023-01-15T17:10:51;2.43;;;1.00;;
2972;SDS011;1496;51.404;7.232;2023-01-15T17:13:44;3.03;;;1.10;;
2972;SDS011;1496;51.404;7.232;2023-01-15T17:18:46;4.13;;;1.20;;
2972;SDS011;1496;51.404;7.232;2023-01-15T17:21:16;13.07;;;1.30;;
2972;SDS011;1496;51.404;7.232;2023-01-15T17:23:53;2.47;;;0.90;;
2972;SDS011;1496;51.404;7.232;2023-01-15T17:26:24;3.83;;;0.90;;
2972;SDS011;1496;51.404;7.232;2023-01-15T17:28:53;4.00;;;1.40;;
2972;SDS011;1496;51.404;7.232;2023-01-15T17:31:24;3.77;;;0.90;;
2972;SDS011;1496;51.404;7.232;2023-01-15T17:33:53;1.87;;;0.97;;
2972;SDS011;1496;51.404;7.232;2023-01-15T17:36:23;5.30;;;1.17;;
2972;SDS011;1496;51.404;7.232;2023-01-15T17:38:54;3.27;;;0.93;;
2972;SDS011;1496;51.404;7.232;2023-01-15T17:41:21;2.67;;;1.17;;
2972;SDS011;1496;51.404;7.232;2023-01-15T17:43:49;3.90;;;1.13;;
2972;SDS011;1496;51.404;7.232;2023-01-15T17:46:17;3.10;;;1.30;;
2972;SDS011;1496;51.404;7.232;2023-01-15T17:48:44;3.60;;;1.00;;
2972;SDS011;1496;51.404;7.232;2023-01-15T17:51:13;2.43;;;0.87;;
2972;SDS011;1496;51.404;7.232;2023-01-15T17:53:42;1.53;;;0.80;;
2972;SDS011;1496;51.404;7.232;2023-01-15T17:56:08;2.70;;;0.90;;
2972;SDS011;1496;51.404;7.232;2023-01-15T17:58:53;5.00;;;1.00;;
2972;SDS011;1496;51.404;7.232;2023-01-15T18:01:40;4.20;;;1.20;;
2972;SDS011;1496;51.404;7.232;2023-01-15T18:04:31;3.33;;;1.00;;
2972;SDS011;1496;51.404;7.232;2023-01-15T18:07:25;2.00;;;1.00;;